DLH249 LIMC-EDDF
Flight info
| Callsign | DLH249 |
|---|---|
| Flight time | 0h 48m |
| Altitude | 32000 |
| Route | PEPAG DCT ABESI N851 UTAVO DCT ROLSA DCT LADOL T163 EMPAX EMPAX5B |
| Aircraft | A321/M-SDE3FGHIRWY/LB1 |
Departure
| Time | 2026-05-04 09:44 |
|---|---|
| Airport | Milan Malpensa International Airport (LIMC) |
Arrival
| Time | 2026-05-04 10:32 |
|---|---|
| Airport | Frankfurt Main Airport (EDDF) |
| Time | Latitude | Longitude | Altitude | Speed | Heading |
|---|---|---|---|---|---|
| 2026-05-04 08:38 | 45.62548 | 8.71670 | 716 ft | 0 kts | 171° |
| 2026-05-04 09:30 | 45.62554 | 8.71669 | 716 ft | 4 kts | 171° |
| 2026-05-04 09:31 | 45.62581 | 8.71663 | 718 ft | 4 kts | 171° |
| 2026-05-04 09:31 | 45.62607 | 8.71655 | 720 ft | 4 kts | 154° |
| 2026-05-04 09:31 | 45.62623 | 8.71637 | 719 ft | 4 kts | 93° |
| 2026-05-04 09:31 | 45.62624 | 8.71648 | 720 ft | 4 kts | 84° |
| 2026-05-04 09:32 | 45.62630 | 8.71685 | 718 ft | 4 kts | 76° |
| 2026-05-04 09:32 | 45.62633 | 8.71706 | 716 ft | 0 kts | 79° |
| 2026-05-04 09:35 | 45.62636 | 8.71725 | 716 ft | 5 kts | 79° |
| 2026-05-04 09:35 | 45.62645 | 8.71795 | 718 ft | 10 kts | 87° |
| 2026-05-04 09:35 | 45.62579 | 8.71855 | 717 ft | 13 kts | 172° |
| 2026-05-04 09:37 | 45.61615 | 8.72120 | 720 ft | 20 kts | 169° |
| 2026-05-04 09:37 | 45.61475 | 8.72158 | 717 ft | 21 kts | 169° |
| 2026-05-04 09:38 | 45.61331 | 8.72196 | 716 ft | 21 kts | 169° |
| 2026-05-04 09:38 | 45.61183 | 8.72239 | 721 ft | 22 kts | 168° |
| 2026-05-04 09:38 | 45.61034 | 8.72280 | 720 ft | 22 kts | 169° |
| 2026-05-04 09:38 | 45.60879 | 8.72322 | 718 ft | 23 kts | 168° |
| 2026-05-04 09:39 | 45.60721 | 8.72366 | 717 ft | 23 kts | 169° |
| 2026-05-04 09:39 | 45.60638 | 8.72525 | 719 ft | 22 kts | 95° |
| 2026-05-04 09:39 | 45.60623 | 8.72740 | 718 ft | 22 kts | 96° |
| 2026-05-04 09:39 | 45.60607 | 8.72961 | 718 ft | 23 kts | 96° |
| 2026-05-04 09:40 | 45.60593 | 8.73187 | 720 ft | 23 kts | 83° |
| 2026-05-04 09:40 | 45.60709 | 8.73320 | 720 ft | 22 kts | 21° |
| 2026-05-04 09:40 | 45.60856 | 8.73399 | 719 ft | 21 kts | 20° |
| 2026-05-04 09:40 | 45.60992 | 8.73381 | 718 ft | 20 kts | 351° |
| 2026-05-04 09:41 | 45.61131 | 8.73345 | 717 ft | 21 kts | 348° |
| 2026-05-04 09:42 | 45.61597 | 8.73680 | 718 ft | 14 kts | 80° |
| 2026-05-04 09:43 | 45.61632 | 8.73742 | 716 ft | 8 kts | 355° |
| 2026-05-04 09:43 | 45.61798 | 8.73693 | 716 ft | 56 kts | 348° |
| 2026-05-04 09:43 | 45.62418 | 8.73515 | 722 ft | 123 kts | 349° |
| 2026-05-04 09:43 | 45.63445 | 8.73233 | 719 ft | 174 kts | 349° |
| 2026-05-04 09:44 | 45.64279 | 8.73016 | 911 ft | 187 kts | 348° |
| 2026-05-04 09:44 | 45.65936 | 8.73325 | 1932 ft | 186 kts | 36° |
| 2026-05-04 09:44 | 45.66518 | 8.74214 | 2400 ft | 187 kts | 59° |
| 2026-05-04 09:46 | 45.72443 | 8.86332 | 5895 ft | 263 kts | 92° |
| 2026-05-04 09:46 | 45.72405 | 8.89000 | 6528 ft | 271 kts | 94° |
| 2026-05-04 09:46 | 45.72338 | 8.91713 | 7282 ft | 275 kts | 94° |
| 2026-05-04 09:47 | 45.72280 | 8.94461 | 8008 ft | 278 kts | 94° |
| 2026-05-04 09:47 | 45.72238 | 8.97258 | 8704 ft | 283 kts | 94° |
| 2026-05-04 09:49 | 45.82538 | 9.08085 | 11728 ft | 373 kts | 355° |
| 2026-05-04 09:49 | 45.85140 | 9.07889 | 12357 ft | 376 kts | 355° |
| 2026-05-04 09:49 | 45.87761 | 9.07695 | 13019 ft | 379 kts | 355° |
| 2026-05-04 09:51 | 46.03932 | 9.06427 | 16295 ft | 397 kts | 351° |
| 2026-05-04 09:51 | 46.06687 | 9.05936 | 16826 ft | 401 kts | 351° |
| 2026-05-04 09:51 | 46.09472 | 9.05417 | 17287 ft | 405 kts | 351° |
| 2026-05-04 09:51 | 46.12245 | 9.04905 | 17814 ft | 408 kts | 351° |
| 2026-05-04 09:52 | 46.15079 | 9.04406 | 18315 ft | 412 kts | 352° |
| 2026-05-04 09:52 | 46.17934 | 9.03941 | 18783 ft | 415 kts | 353° |
| 2026-05-04 09:52 | 46.20819 | 9.03536 | 19212 ft | 418 kts | 353° |
| 2026-05-04 09:52 | 46.23726 | 9.03171 | 19650 ft | 420 kts | 353° |
| 2026-05-04 09:53 | 46.26645 | 9.02815 | 20104 ft | 422 kts | 353° |
| 2026-05-04 09:53 | 46.29575 | 9.02453 | 20560 ft | 424 kts | 353° |
| 2026-05-04 09:53 | 46.32521 | 9.02077 | 21005 ft | 426 kts | 353° |
| 2026-05-04 09:53 | 46.35476 | 9.01687 | 21451 ft | 427 kts | 353° |
| 2026-05-04 09:54 | 46.38444 | 9.01283 | 21847 ft | 430 kts | 352° |
| 2026-05-04 09:54 | 46.41435 | 9.00871 | 22270 ft | 432 kts | 352° |
| 2026-05-04 09:54 | 46.44438 | 9.00455 | 22690 ft | 434 kts | 352° |
| 2026-05-04 09:54 | 46.47459 | 9.00043 | 23062 ft | 437 kts | 352° |
| 2026-05-04 09:55 | 46.50489 | 8.99636 | 23417 ft | 439 kts | 352° |
| 2026-05-04 09:55 | 46.53549 | 8.99222 | 23782 ft | 442 kts | 352° |
| 2026-05-04 09:55 | 46.56616 | 8.98804 | 24114 ft | 444 kts | 352° |
| 2026-05-04 09:55 | 46.59701 | 8.98384 | 24417 ft | 446 kts | 352° |
| 2026-05-04 09:56 | 46.62796 | 8.97965 | 24727 ft | 448 kts | 352° |
| 2026-05-04 09:56 | 46.65911 | 8.97547 | 25005 ft | 450 kts | 352° |
| 2026-05-04 09:56 | 46.69034 | 8.97130 | 25239 ft | 452 kts | 352° |
| 2026-05-04 09:56 | 46.72162 | 8.96711 | 25566 ft | 453 kts | 352° |
| 2026-05-04 09:57 | 46.75310 | 8.96285 | 25896 ft | 455 kts | 352° |
| 2026-05-04 09:57 | 46.78471 | 8.95855 | 26220 ft | 457 kts | 352° |
| 2026-05-04 09:57 | 46.81643 | 8.95422 | 26565 ft | 458 kts | 352° |
| 2026-05-04 09:57 | 46.84817 | 8.94991 | 26854 ft | 460 kts | 352° |
| 2026-05-04 09:58 | 46.88013 | 8.94558 | 27145 ft | 461 kts | 352° |
| 2026-05-04 09:58 | 46.91211 | 8.94122 | 27426 ft | 464 kts | 352° |
| 2026-05-04 09:58 | 46.94434 | 8.93680 | 27728 ft | 466 kts | 352° |
| 2026-05-04 10:00 | 47.17326 | 8.90519 | 29605 ft | 478 kts | 352° |
| 2026-05-04 10:00 | 47.20653 | 8.90062 | 29834 ft | 480 kts | 352° |
| 2026-05-04 10:02 | 47.43911 | 8.89983 | 31784 ft | 478 kts | 360° |
| 2026-05-04 10:04 | 47.66696 | 8.91639 | 32038 ft | 465 kts | 359° |
| 2026-05-04 10:04 | 47.73157 | 8.92114 | 32033 ft | 465 kts | 359° |
| 2026-05-04 10:05 | 47.79624 | 8.92586 | 32034 ft | 466 kts | 359° |
| 2026-05-04 10:05 | 47.86106 | 8.93071 | 32036 ft | 466 kts | 359° |
| 2026-05-04 10:06 | 47.92576 | 8.93553 | 32030 ft | 466 kts | 359° |
| 2026-05-04 10:06 | 47.99070 | 8.94033 | 32030 ft | 466 kts | 359° |
| 2026-05-04 10:08 | 48.21766 | 8.95899 | 32036 ft | 469 kts | 2° |
| 2026-05-04 10:08 | 48.28260 | 8.96969 | 32024 ft | 470 kts | 4° |
| 2026-05-04 10:09 | 48.31514 | 8.97535 | 31776 ft | 470 kts | 4° |
| 2026-05-04 10:09 | 48.34768 | 8.98084 | 31520 ft | 470 kts | 3° |
| 2026-05-04 10:09 | 48.38021 | 8.98602 | 31231 ft | 469 kts | 3° |
| 2026-05-04 10:09 | 48.41255 | 8.99097 | 30672 ft | 466 kts | 3° |
| 2026-05-04 10:10 | 48.44484 | 8.99579 | 30112 ft | 464 kts | 3° |
| 2026-05-04 10:10 | 48.47685 | 9.00056 | 29526 ft | 460 kts | 3° |
| 2026-05-04 10:10 | 48.50845 | 9.00531 | 29013 ft | 454 kts | 3° |
| 2026-05-04 10:10 | 48.53967 | 9.01002 | 28499 ft | 449 kts | 3° |
| 2026-05-04 10:11 | 48.57062 | 9.01472 | 27993 ft | 445 kts | 3° |
| 2026-05-04 10:11 | 48.60121 | 9.01939 | 27476 ft | 440 kts | 4° |
| 2026-05-04 10:11 | 48.63151 | 9.02411 | 26975 ft | 436 kts | 4° |
| 2026-05-04 10:11 | 48.66154 | 9.02986 | 26479 ft | 432 kts | 6° |
| 2026-05-04 10:12 | 48.69116 | 9.03674 | 25990 ft | 429 kts | 7° |
| 2026-05-04 10:12 | 48.72053 | 9.04427 | 25512 ft | 425 kts | 8° |
| 2026-05-04 10:12 | 48.74966 | 9.05193 | 25029 ft | 421 kts | 8° |
| 2026-05-04 10:12 | 48.77842 | 9.05934 | 24582 ft | 417 kts | 8° |
| 2026-05-04 10:13 | 48.80699 | 9.06644 | 24126 ft | 414 kts | 7° |
| 2026-05-04 10:13 | 48.83545 | 9.07331 | 23687 ft | 411 kts | 7° |
| 2026-05-04 10:13 | 48.86359 | 9.07998 | 23211 ft | 407 kts | 7° |
| 2026-05-04 10:13 | 48.89105 | 9.08628 | 22797 ft | 401 kts | 6° |
| 2026-05-04 10:14 | 48.91854 | 9.09124 | 22381 ft | 395 kts | 4° |
| 2026-05-04 10:14 | 48.94585 | 9.09506 | 21969 ft | 389 kts | 3° |
| 2026-05-04 10:16 | 49.13544 | 9.10956 | 19232 ft | 395 kts | 355° |
| 2026-05-04 10:16 | 49.16291 | 9.10730 | 18987 ft | 394 kts | 355° |
| 2026-05-04 10:16 | 49.19021 | 9.10502 | 18749 ft | 393 kts | 355° |
| 2026-05-04 10:16 | 49.21760 | 9.10279 | 18520 ft | 392 kts | 355° |
| 2026-05-04 10:17 | 49.24479 | 9.10063 | 18282 ft | 391 kts | 355° |
| 2026-05-04 10:17 | 49.27203 | 9.09849 | 18014 ft | 389 kts | 355° |
| 2026-05-04 10:19 | 49.45802 | 9.08344 | 16190 ft | 376 kts | 355° |
| 2026-05-04 10:19 | 49.48379 | 9.08132 | 15940 ft | 374 kts | 355° |
| 2026-05-04 10:19 | 49.50986 | 9.07917 | 15693 ft | 371 kts | 355° |
| 2026-05-04 10:19 | 49.53530 | 9.07706 | 15447 ft | 371 kts | 355° |
| 2026-05-04 10:20 | 49.56101 | 9.07492 | 15197 ft | 368 kts | 355° |
| 2026-05-04 10:20 | 49.58658 | 9.07282 | 14954 ft | 367 kts | 355° |
| 2026-05-04 10:20 | 49.61218 | 9.07071 | 14710 ft | 366 kts | 355° |
| 2026-05-04 10:20 | 49.63739 | 9.06864 | 14352 ft | 360 kts | 355° |
| 2026-05-04 10:21 | 49.66236 | 9.06659 | 13871 ft | 358 kts | 355° |
| 2026-05-04 10:21 | 49.68686 | 9.06457 | 13358 ft | 355 kts | 355° |
| 2026-05-04 10:21 | 49.71141 | 9.06256 | 12893 ft | 350 kts | 355° |
| 2026-05-04 10:21 | 49.73568 | 9.06057 | 12425 ft | 348 kts | 355° |
| 2026-05-04 10:22 | 49.78357 | 9.05659 | 11505 ft | 341 kts | 355° |
| 2026-05-04 10:22 | 49.80710 | 9.05462 | 11053 ft | 338 kts | 355° |
| 2026-05-04 10:22 | 49.83061 | 9.05266 | 10582 ft | 338 kts | 355° |
| 2026-05-04 10:23 | 49.85397 | 9.05074 | 10353 ft | 328 kts | 355° |
| 2026-05-04 10:23 | 49.87604 | 9.04894 | 10228 ft | 315 kts | 355° |
| 2026-05-04 10:25 | 50.02477 | 9.03656 | 7819 ft | 306 kts | 355° |
| 2026-05-04 10:25 | 50.04611 | 9.03471 | 7187 ft | 303 kts | 355° |
| 2026-05-04 10:25 | 50.06693 | 9.03296 | 6506 ft | 297 kts | 355° |
| 2026-05-04 10:25 | 50.08730 | 9.03114 | 5879 ft | 290 kts | 351° |
| 2026-05-04 10:26 | 50.10602 | 9.02249 | 5237 ft | 275 kts | 325° |
| 2026-05-04 10:26 | 50.11960 | 9.00287 | 4617 ft | 262 kts | 298° |
| 2026-05-04 10:26 | 50.12606 | 8.97773 | 4254 ft | 240 kts | 275° |
| 2026-05-04 10:26 | 50.12594 | 8.95314 | 4038 ft | 224 kts | 255° |
| 2026-05-04 10:27 | 50.12128 | 8.93042 | 3979 ft | 217 kts | 248° |
| 2026-05-04 10:27 | 50.11606 | 8.90821 | 4005 ft | 219 kts | 248° |
| 2026-05-04 10:27 | 50.11085 | 8.88601 | 3999 ft | 210 kts | 248° |
| 2026-05-04 10:27 | 50.10611 | 8.86577 | 3977 ft | 192 kts | 248° |
| 2026-05-04 10:28 | 50.10169 | 8.84694 | 3802 ft | 180 kts | 248° |
| 2026-05-04 10:28 | 50.09886 | 8.83497 | 3662 ft | 176 kts | 248° |
| 2026-05-04 10:28 | 50.09321 | 8.81101 | 3379 ft | 175 kts | 247° |
| 2026-05-04 10:28 | 50.08913 | 8.79370 | 3147 ft | 167 kts | 248° |
| 2026-05-04 10:29 | 50.08524 | 8.77720 | 2924 ft | 159 kts | 248° |
| 2026-05-04 10:29 | 50.08145 | 8.76117 | 2708 ft | 157 kts | 248° |
| 2026-05-04 10:29 | 50.07887 | 8.75026 | 2573 ft | 158 kts | 249° |
| 2026-05-04 10:29 | 50.07513 | 8.73445 | 2364 ft | 158 kts | 248° |
| 2026-05-04 10:30 | 50.07141 | 8.71872 | 2156 ft | 152 kts | 248° |
| 2026-05-04 10:30 | 50.06777 | 8.70332 | 1958 ft | 149 kts | 247° |
| 2026-05-04 10:30 | 50.06417 | 8.68813 | 1754 ft | 151 kts | 248° |
| 2026-05-04 10:30 | 50.06048 | 8.67283 | 1563 ft | 149 kts | 246° |
| 2026-05-04 10:31 | 50.05680 | 8.65792 | 1344 ft | 149 kts | 249° |
| 2026-05-04 10:31 | 50.05337 | 8.64253 | 1156 ft | 150 kts | 248° |
| 2026-05-04 10:32 | 50.03476 | 8.56473 | 357 ft | 26 kts | 250° |
| 2026-05-04 10:33 | 50.03418 | 8.56194 | 357 ft | 29 kts | 252° |
| 2026-05-04 10:33 | 50.03345 | 8.55887 | 350 ft | 31 kts | 249° |
| 2026-05-04 10:33 | 50.03310 | 8.55560 | 343 ft | 24 kts | 272° |
| 2026-05-04 10:33 | 50.03326 | 8.55394 | 343 ft | 15 kts | 281° |
| 2026-05-04 10:34 | 50.03338 | 8.55278 | 343 ft | 9 kts | 279° |
| 2026-05-04 10:34 | 50.03350 | 8.55171 | 348 ft | 11 kts | 280° |
| 2026-05-04 10:34 | 50.03378 | 8.55075 | 353 ft | 8 kts | 332° |
| 2026-05-04 10:34 | 50.03404 | 8.55109 | 348 ft | 5 kts | 65° |
| 2026-05-04 10:35 | 50.03424 | 8.55188 | 348 ft | 12 kts | 70° |
| 2026-05-04 10:35 | 50.03460 | 8.55340 | 347 ft | 17 kts | 70° |
| 2026-05-04 10:35 | 50.03503 | 8.55520 | 351 ft | 18 kts | 69° |
| 2026-05-04 10:35 | 50.03548 | 8.55710 | 349 ft | 19 kts | 69° |
| 2026-05-04 10:36 | 50.03594 | 8.55896 | 357 ft | 18 kts | 69° |
| 2026-05-04 10:36 | 50.03638 | 8.56080 | 359 ft | 18 kts | 69° |
| 2026-05-04 10:36 | 50.03683 | 8.56261 | 360 ft | 18 kts | 70° |
| 2026-05-04 10:36 | 50.03731 | 8.56474 | 359 ft | 26 kts | 70° |
| 2026-05-04 10:37 | 50.03798 | 8.56745 | 358 ft | 27 kts | 69° |
| 2026-05-04 10:37 | 50.03860 | 8.57019 | 358 ft | 26 kts | 70° |
| 2026-05-04 10:37 | 50.03913 | 8.57241 | 363 ft | 21 kts | 70° |
| 2026-05-04 10:37 | 50.03956 | 8.57418 | 367 ft | 16 kts | 69° |
| 2026-05-04 10:39 | 50.04207 | 8.58463 | 370 ft | 9 kts | 69° |
| 2026-05-04 10:39 | 50.04214 | 8.58488 | 370 ft | 0 kts | 70° |
| 2026-05-04 10:41 | 50.04217 | 8.58503 | 371 ft | 6 kts | 70° |
| 2026-05-04 10:41 | 50.04244 | 8.58617 | 372 ft | 16 kts | 69° |
| 2026-05-04 10:41 | 50.04289 | 8.58803 | 372 ft | 20 kts | 70° |
| 2026-05-04 10:42 | 50.04338 | 8.59016 | 377 ft | 21 kts | 69° |
| 2026-05-04 10:42 | 50.04388 | 8.59214 | 376 ft | 19 kts | 70° |
| 2026-05-04 10:42 | 50.04429 | 8.59393 | 376 ft | 16 kts | 69° |
| 2026-05-04 10:42 | 50.04511 | 8.59470 | 374 ft | 14 kts | 359° |
| 2026-05-04 10:43 | 50.04605 | 8.59468 | 373 ft | 13 kts | 358° |
| 2026-05-04 10:44 | 50.04896 | 8.59366 | 370 ft | 10 kts | 11° |
| 2026-05-04 10:45 | 50.04970 | 8.59357 | 367 ft | 14 kts | 342° |
| 2026-05-04 10:45 | 50.05061 | 8.59293 | 364 ft | 13 kts | 316° |
| 2026-05-04 10:45 | 50.05064 | 8.59144 | 361 ft | 18 kts | 250° |
| 2026-05-04 10:45 | 50.05016 | 8.58940 | 363 ft | 19 kts | 249° |
| 2026-05-04 10:46 | 50.04970 | 8.58750 | 362 ft | 20 kts | 249° |
| 2026-05-04 10:46 | 50.04911 | 8.58502 | 363 ft | 26 kts | 250° |
| 2026-05-04 10:46 | 50.04851 | 8.58252 | 361 ft | 23 kts | 250° |
| 2026-05-04 10:46 | 50.04795 | 8.58028 | 362 ft | 21 kts | 239° |
| 2026-05-04 10:47 | 50.04704 | 8.57875 | 358 ft | 18 kts | 240° |
| 2026-05-04 10:47 | 50.04662 | 8.57708 | 362 ft | 15 kts | 250° |
| 2026-05-04 10:47 | 50.04622 | 8.57540 | 359 ft | 19 kts | 250° |
| 2026-05-04 10:47 | 50.04567 | 8.57309 | 359 ft | 26 kts | 250° |
| 2026-05-04 10:49 | 50.04434 | 8.56060 | 361 ft | 13 kts | 50° |
| 2026-05-04 10:49 | 50.04477 | 8.56229 | 359 ft | 21 kts | 70° |
| 2026-05-04 10:50 | 50.04534 | 8.56420 | 361 ft | 18 kts | 43° |
| 2026-05-04 10:51 | 50.04787 | 8.56764 | 363 ft | 0 kts | 115° |
| 2026-05-04 10:52 | 50.04787 | 8.56766 | 363 ft | 0 kts | 115° |